createdAt,value
2023-04-26T00:00:00.217Z,100.00
2023-04-26T00:05:05.337Z,100.00
2023-04-26T00:10:10.904Z,100.00
2023-04-26T00:15:16.210Z,100.00
2023-04-26T00:20:20.436Z,100.00
2023-04-26T00:25:24.304Z,100.00
2023-04-26T00:30:29.654Z,100.00
2023-04-26T00:35:33.484Z,100.00
2023-04-26T00:40:37.460Z,100.00
2023-04-26T00:45:43.097Z,100.00
2023-04-26T00:50:48.537Z,100.00
2023-04-26T00:55:53.815Z,100.00
2023-04-26T01:00:59.546Z,100.00
2023-04-26T01:06:03.426Z,100.00
2023-04-26T01:11:07.790Z,100.00
2023-04-26T01:16:15.238Z,100.00
2023-04-26T01:21:22.301Z,100.00
2023-04-26T01:26:27.690Z,100.00
2023-04-26T01:31:31.656Z,100.00
2023-04-26T01:36:35.693Z,100.00
2023-04-26T01:41:41.331Z,100.00
2023-04-26T01:46:45.398Z,100.00
2023-04-26T01:51:50.072Z,100.00
2023-04-26T01:56:55.355Z,100.00
2023-04-26T02:01:59.371Z,100.00
2023-04-26T02:07:03.610Z,100.00
2023-04-26T02:12:09.027Z,100.00
2023-04-26T02:17:12.926Z,100.00
2023-04-26T02:22:17.569Z,100.00
2023-04-26T02:27:22.862Z,100.00
2023-04-26T02:32:26.871Z,100.00
2023-04-26T02:37:30.855Z,100.00
2023-04-26T02:42:36.101Z,100.00
2023-04-26T02:47:40.312Z,100.00
2023-04-26T02:52:44.311Z,100.00
2023-04-26T02:57:49.805Z,100.00
2023-04-26T03:02:53.924Z,100.00
2023-04-26T03:07:58.636Z,100.00
2023-04-26T03:13:04.530Z,100.00
2023-04-26T03:18:08.697Z,100.00
2023-04-26T03:23:13.252Z,100.00
2023-04-26T03:28:18.612Z,100.00
2023-04-26T03:33:22.904Z,100.00
2023-04-26T03:38:27.008Z,100.00
2023-04-26T03:43:32.598Z,100.00
2023-04-26T03:48:37.447Z,100.00
2023-04-26T03:53:42.538Z,100.00
2023-04-26T03:58:47.938Z,100.00
2023-04-26T04:03:52.132Z,100.00
2023-04-26T04:08:56.396Z,100.00
2023-04-26T04:14:02.973Z,100.00
2023-04-26T04:19:06.985Z,100.00
2023-04-26T04:24:11.547Z,100.00
2023-04-26T04:29:16.879Z,100.00
2023-04-26T04:34:20.969Z,100.00
2023-04-26T04:39:26.824Z,100.00
2023-04-26T04:44:32.754Z,100.00
2023-04-26T04:49:37.525Z,100.00
2023-04-26T04:54:41.552Z,100.00
2023-04-26T04:59:47.196Z,100.00
2023-04-26T05:04:51.521Z,100.00
2023-04-26T05:09:56.318Z,100.00
2023-04-26T05:15:01.877Z,100.00
2023-04-26T05:20:06.994Z,100.00
2023-04-26T05:25:11.882Z,100.00
2023-04-26T05:30:18.239Z,100.00
2023-04-26T05:35:26.348Z,100.00
2023-04-26T05:40:30.350Z,100.00
2023-04-26T05:45:35.975Z,100.00
2023-04-26T05:50:40.176Z,100.00
2023-04-26T05:55:44.870Z,100.00
2023-04-26T06:00:50.378Z,100.00
2023-04-26T06:05:55.250Z,100.00
2023-04-26T06:11:00.399Z,100.00
2023-04-26T06:16:07.154Z,100.00
2023-04-26T06:21:11.045Z,100.00
2023-04-26T06:26:14.969Z,100.00
2023-04-26T06:31:21.904Z,100.00
2023-04-26T06:36:28.259Z,100.00
2023-04-26T06:41:32.383Z,100.00
2023-04-26T06:46:38.358Z,100.00
2023-04-26T06:51:45.141Z,100.00
2023-04-26T06:56:49.006Z,100.00
2023-04-26T07:01:54.529Z,100.00
2023-04-26T07:06:58.468Z,100.00
2023-04-26T07:12:02.649Z,100.00
2023-04-26T07:17:08.040Z,100.00
2023-04-26T07:22:12.163Z,100.00
2023-04-26T07:27:16.426Z,100.00
2023-04-26T07:32:21.743Z,100.00
2023-04-26T07:37:25.672Z,100.00
2023-04-26T07:42:29.666Z,100.00
2023-04-26T07:47:34.985Z,100.00
2023-04-26T07:52:39.018Z,100.00
2023-04-26T07:57:43.241Z,100.00
2023-04-26T08:02:48.679Z,100.00
2023-04-26T08:07:52.801Z,100.00
2023-04-26T08:12:58.299Z,100.00
2023-04-26T08:18:03.890Z,99.41
2023-04-26T08:23:08.173Z,100.00
2023-04-26T08:28:14.597Z,97.79
2023-04-26T08:33:20.655Z,95.73
2023-04-26T08:38:24.994Z,98.97
2023-04-26T08:43:29.709Z,88.36
2023-04-26T08:48:37.564Z,93.69
2023-04-26T08:53:43.128Z,96.18
2023-04-26T08:58:47.277Z,94.19
2023-04-26T09:03:53.054Z,94.41
2023-04-26T09:08:58.785Z,80.28
2023-04-26T09:14:02.707Z,77.36
2023-04-26T09:19:08.196Z,81.49
2023-04-26T09:24:12.449Z,84.50
2023-04-26T09:29:17.877Z,87.31
2023-04-26T09:34:23.250Z,85.56
2023-04-26T09:39:34.363Z,87.59
2023-04-26T09:44:39.204Z,88.48
2023-04-26T09:49:48.918Z,78.35
2023-04-26T09:54:54.975Z,77.98
2023-04-26T10:00:00.971Z,74.81
2023-04-26T10:05:08.884Z,77.99
2023-04-26T10:10:13.662Z,82.94
2023-04-26T10:15:19.761Z,79.77
2023-04-26T10:20:28.360Z,80.00
2023-04-26T10:25:40.318Z,74.34
2023-04-26T10:30:57.647Z,75.18
2023-04-26T10:36:13.558Z,77.68
2023-04-26T10:41:36.119Z,74.32
2023-04-26T10:46:43.358Z,76.82
2023-04-26T10:52:17.204Z,71.85
2023-04-26T10:57:21.840Z,72.79
2023-04-26T11:02:48.319Z,72.75
2023-04-26T11:08:05.176Z,70.64
2023-04-26T11:13:09.203Z,70.59
2023-04-26T11:18:13.222Z,71.01
2023-04-26T11:23:19.872Z,69.34
2023-04-26T11:28:24.349Z,63.46
2023-04-26T11:33:28.484Z,63.32
2023-04-26T11:38:33.820Z,64.19
2023-04-26T11:43:39.019Z,63.98
2023-04-26T11:48:43.547Z,61.39
2023-04-26T11:53:48.763Z,62.61
2023-04-26T11:58:53.985Z,60.37
2023-04-26T12:03:59.681Z,57.20
2023-04-26T12:09:06.424Z,57.67
2023-04-26T12:14:11.587Z,57.17
2023-04-26T12:19:17.239Z,60.41
2023-04-26T12:24:26.665Z,59.80
2023-04-26T12:29:32.020Z,64.38
2023-04-26T12:34:36.005Z,65.00
2023-04-26T12:39:41.344Z,62.30
2023-04-26T12:44:45.312Z,59.08
2023-04-26T12:49:49.217Z,60.25
2023-04-26T12:54:54.756Z,57.10
2023-04-26T12:59:58.813Z,56.80
2023-04-26T13:05:06.510Z,48.73
2023-04-26T13:10:13.315Z,48.55
2023-04-26T13:15:17.925Z,51.68
2023-04-26T13:20:23.195Z,47.84
2023-04-26T13:25:30.387Z,55.88
2023-04-26T13:30:34.353Z,59.89
2023-04-26T13:35:38.270Z,60.41
2023-04-26T13:40:43.602Z,60.12
2023-04-26T13:45:47.531Z,56.13
2023-04-26T13:50:51.532Z,57.67
2023-04-26T13:55:56.804Z,52.79
2023-04-26T14:01:01.676Z,50.55
2023-04-26T14:06:06.087Z,45.74
2023-04-26T14:11:12.129Z,52.05
2023-04-26T14:16:17.358Z,55.32
2023-04-26T14:21:21.472Z,59.59
2023-04-26T14:26:27.475Z,59.28
2023-04-26T14:31:31.961Z,61.29
2023-04-26T14:36:36.894Z,51.52
2023-04-26T14:41:43.666Z,45.99
2023-04-26T14:46:47.776Z,47.16
2023-04-26T14:51:55.911Z,42.85
2023-04-26T14:57:01.469Z,46.35
2023-04-26T15:02:05.724Z,47.26
2023-04-26T15:07:15.283Z,47.72
2023-04-26T15:12:26.283Z,43.14
2023-04-26T15:17:33.025Z,48.14
2023-04-26T15:22:38.746Z,48.70
2023-04-26T15:27:45.955Z,50.01
2023-04-26T15:32:50.627Z,49.94
2023-04-26T15:37:54.834Z,53.71
2023-04-26T15:43:00.156Z,57.42
2023-04-26T15:48:04.338Z,55.28
2023-04-26T15:53:08.288Z,55.04
2023-04-26T15:58:13.649Z,54.09
2023-04-26T16:03:18.203Z,49.67
2023-04-26T16:08:39.605Z,51.10
2023-04-26T16:13:45.801Z,48.31
2023-04-26T16:18:49.748Z,50.09
2023-04-26T16:23:53.651Z,49.76
2023-04-26T16:28:58.953Z,52.18
2023-04-26T16:34:03.014Z,59.89
2023-04-26T16:39:07.714Z,61.20
2023-04-26T16:44:13.131Z,62.48
2023-04-26T16:49:17.127Z,62.54
2023-04-26T16:54:21.419Z,62.51
2023-04-26T16:59:27.598Z,64.35
2023-04-26T17:04:32.161Z,61.74
2023-04-26T17:09:38.573Z,62.89
2023-04-26T17:14:44.133Z,62.59
2023-04-26T17:19:48.109Z,62.45
2023-04-26T17:24:52.080Z,61.18
2023-04-26T17:29:57.433Z,58.99
2023-04-26T17:35:01.460Z,61.04
2023-04-26T17:40:07.791Z,61.37
2023-04-26T17:45:14.829Z,65.95
2023-04-26T17:50:21.174Z,64.14
2023-04-26T17:55:25.219Z,68.27
2023-04-26T18:00:30.556Z,67.47
2023-04-26T18:05:34.684Z,68.88
2023-04-26T18:10:38.683Z,67.69
2023-04-26T18:15:44.240Z,67.20
2023-04-26T18:20:48.152Z,72.01
2023-04-26T18:25:52.134Z,70.25
2023-04-26T18:30:59.101Z,70.79
2023-04-26T18:36:03.084Z,68.17
2023-04-26T18:41:07.420Z,70.70
2023-04-26T18:46:12.855Z,70.91
2023-04-26T18:51:16.996Z,71.34
2023-04-26T18:56:21.027Z,80.17
2023-04-26T19:01:26.641Z,76.62
2023-04-26T19:06:31.562Z,77.77
2023-04-26T19:11:35.469Z,76.45
2023-04-26T19:16:40.856Z,76.54
2023-04-26T19:21:44.837Z,77.33
2023-04-26T19:26:48.727Z,75.87
2023-04-26T19:31:54.350Z,76.40
2023-04-26T19:36:58.556Z,76.52
2023-04-26T19:42:03.322Z,79.55
2023-04-26T19:47:09.018Z,80.70
2023-04-26T19:52:13.523Z,80.19
2023-04-26T19:57:17.690Z,82.63
2023-04-26T20:02:23.146Z,89.21
2023-04-26T20:07:27.679Z,88.49
2023-04-26T20:12:31.824Z,87.92
2023-04-26T20:17:37.564Z,88.32
2023-04-26T20:22:42.087Z,91.10
2023-04-26T20:27:47.218Z,95.88
2023-04-26T20:32:52.979Z,95.10
2023-04-26T20:37:57.594Z,92.94
2023-04-26T20:43:01.989Z,88.63
2023-04-26T20:48:07.820Z,86.61
2023-04-26T20:53:11.629Z,92.88
2023-04-26T20:58:15.642Z,91.70
2023-04-26T21:03:21.112Z,92.62
2023-04-26T21:08:25.369Z,93.89
2023-04-26T21:13:30.307Z,91.61
2023-04-26T21:18:35.993Z,92.08
2023-04-26T21:23:40.028Z,96.45
2023-04-26T21:28:43.989Z,97.97
2023-04-26T21:33:49.832Z,98.92
2023-04-26T21:38:53.810Z,97.53
2023-04-26T21:43:58.760Z,99.18
2023-04-26T21:49:04.087Z,99.40
2023-04-26T21:54:08.272Z,96.11
2023-04-26T21:59:12.557Z,92.46
2023-04-26T22:04:18.213Z,86.78
2023-04-26T22:09:22.575Z,91.44
2023-04-26T22:14:26.906Z,98.60
2023-04-26T22:19:32.226Z,91.90
2023-04-26T22:24:36.296Z,91.12
2023-04-26T22:29:40.511Z,88.69
2023-04-26T22:34:45.992Z,91.97
2023-04-26T22:39:50.254Z,87.81
2023-04-26T22:44:54.187Z,82.83
2023-04-26T22:49:59.693Z,79.21
2023-04-26T22:55:03.994Z,89.61
2023-04-26T23:00:12.644Z,86.02
2023-04-26T23:05:18.594Z,89.14
2023-04-26T23:10:22.804Z,89.28
2023-04-26T23:15:27.156Z,87.55
2023-04-26T23:20:32.507Z,90.38
2023-04-26T23:25:36.521Z,88.28
2023-04-26T23:30:40.780Z,88.55
2023-04-26T23:35:46.203Z,85.63
2023-04-26T23:40:50.250Z,86.34
2023-04-26T23:45:54.258Z,87.22
2023-04-26T23:51:00.338Z,89.64
2023-04-26T23:56:04.518Z,88.04
